sensor_id;sensor_type;location;lat;lon;timestamp;pressure;altitude;pressure_sealevel;temperature;humidity
18323;BME280;9287;49.456;11.064;2024-02-21T00:02:08;99083.78;;;7.58;100.00
18323;BME280;9287;49.456;11.064;2024-02-21T00:04:37;99071.66;;;7.64;100.00
18323;BME280;9287;49.456;11.064;2024-02-21T00:07:05;99081.16;;;7.53;100.00
18323;BME280;9287;49.456;11.064;2024-02-21T00:09:33;99072.09;;;7.58;100.00
18323;BME280;9287;49.456;11.064;2024-02-21T00:12:01;99071.78;;;7.59;100.00
18323;BME280;9287;49.456;11.064;2024-02-21T00:14:29;99071.66;;;7.64;100.00
18323;BME280;9287;49.456;11.064;2024-02-21T00:16:57;99068.13;;;7.64;100.00
18323;BME280;9287;49.456;11.064;2024-02-21T00:19:25;99062.03;;;7.58;100.00
18323;BME280;9287;49.456;11.064;2024-02-21T00:21:54;99053.38;;;7.56;100.00
18323;BME280;9287;49.456;11.064;2024-02-21T00:24:22;99054.97;;;7.57;100.00
18323;BME280;9287;49.456;11.064;2024-02-21T00:26:50;99046.75;;;7.49;100.00
18323;BME280;9287;49.456;11.064;2024-02-21T00:29:18;99053.38;;;7.56;100.00
18323;BME280;9287;49.456;11.064;2024-02-21T00:31:45;99052.38;;;7.52;100.00
18323;BME280;9287;49.456;11.064;2024-02-21T00:34:13;99045.31;;;7.51;100.00
18323;BME280;9287;49.456;11.064;2024-02-21T00:36:41;99047.53;;;7.49;100.00
18323;BME280;9287;49.456;11.064;2024-02-21T00:39:10;99042.19;;;7.58;100.00
18323;BME280;9287;49.456;11.064;2024-02-21T00:41:38;99033.44;;;7.47;100.00
18323;BME280;9287;49.456;11.064;2024-02-21T00:44:06;99042.09;;;7.49;100.00
18323;BME280;9287;49.456;11.064;2024-02-21T00:46:34;99036.06;;;7.52;100.00
18323;BME280;9287;49.456;11.064;2024-02-21T00:49:01;99026.91;;;7.48;100.00
18323;BME280;9287;49.456;11.064;2024-02-21T00:51:29;99025.50;;;7.51;100.00
18323;BME280;9287;49.456;11.064;2024-02-21T00:53:57;99025.59;;;7.46;100.00
18323;BME280;9287;49.456;11.064;2024-02-21T00:56:26;99029.03;;;7.51;100.00
18323;BME280;9287;49.456;11.064;2024-02-21T00:58:54;99023.81;;;7.41;100.00
18323;BME280;9287;49.456;11.064;2024-02-21T01:01:24;99023.06;;;7.27;100.00
18323;BME280;9287;49.456;11.064;2024-02-21T01:03:52;99018.22;;;7.24;100.00
18323;BME280;9287;49.456;11.064;2024-02-21T01:06:21;99014.66;;;7.37;100.00
18323;BME280;9287;49.456;11.064;2024-02-21T01:08:49;99010.94;;;7.33;100.00
18323;BME280;9287;49.456;11.064;2024-02-21T01:11:16;99008.13;;;7.38;100.00
18323;BME280;9287;49.456;11.064;2024-02-21T01:13:46;99006.75;;;7.27;100.00
18323;BME280;9287;49.456;11.064;2024-02-21T01:16:14;98999.91;;;7.16;100.00
18323;BME280;9287;49.456;11.064;2024-02-21T01:18:42;98996.28;;;7.20;100.00
18323;BME280;9287;49.456;11.064;2024-02-21T01:21:09;98983.03;;;7.19;100.00
18323;BME280;9287;49.456;11.064;2024-02-21T01:23:37;98996.66;;;7.27;100.00
18323;BME280;9287;49.456;11.064;2024-02-21T01:26:05;98986.59;;;7.28;100.00
18323;BME280;9287;49.456;11.064;2024-02-21T01:28:34;98985.56;;;7.02;100.00
18323;BME280;9287;49.456;11.064;2024-02-21T01:31:05;98987.97;;;7.03;100.00
18323;BME280;9287;49.456;11.064;2024-02-21T01:33:32;98988.06;;;7.12;100.00
18323;BME280;9287;49.456;11.064;2024-02-21T01:36:01;98983.22;;;7.22;100.00
18323;BME280;9287;49.456;11.064;2024-02-21T01:38:29;98984.63;;;7.20;100.00
18323;BME280;9287;49.456;11.064;2024-02-21T01:40:58;98987.84;;;7.22;100.00
18323;BME280;9287;49.456;11.064;2024-02-21T01:43:26;98984.03;;;7.23;100.00
18323;BME280;9287;49.456;11.064;2024-02-21T01:45:55;98972.38;;;7.09;100.00
18323;BME280;9287;49.456;11.064;2024-02-21T01:48:30;98969.34;;;7.24;100.00
18323;BME280;9287;49.456;11.064;2024-02-21T01:50:58;98975.22;;;7.04;100.00
18323;BME280;9287;49.456;11.064;2024-02-21T01:53:29;98967.16;;;6.98;100.00
18323;BME280;9287;49.456;11.064;2024-02-21T01:55:57;98957.91;;;6.99;100.00
18323;BME280;9287;49.456;11.064;2024-02-21T01:58:26;98962.75;;;7.03;100.00
18323;BME280;9287;49.456;11.064;2024-02-21T02:00:56;98956.09;;;7.09;100.00
18323;BME280;9287;49.456;11.064;2024-02-21T02:03:24;98956.47;;;7.16;100.00
18323;BME280;9287;49.456;11.064;2024-02-21T02:05:54;98954.25;;;7.18;100.00
18323;BME280;9287;49.456;11.064;2024-02-21T02:08:22;98959.28;;;7.11;100.00
18323;BME280;9287;49.456;11.064;2024-02-21T02:10:50;98950.66;;;7.09;100.00
18323;BME280;9287;49.456;11.064;2024-02-21T02:13:18;98952.41;;;7.27;100.00
18323;BME280;9287;49.456;11.064;2024-02-21T02:15:47;98963.13;;;7.10;100.00
18323;BME280;9287;49.456;11.064;2024-02-21T02:18:17;98952.75;;;7.12;100.00
18323;BME280;9287;49.456;11.064;2024-02-21T02:20:45;98945.69;;;7.11;100.00
18323;BME280;9287;49.456;11.064;2024-02-21T02:23:20;98947.59;;;7.24;100.00
18323;BME280;9287;49.456;11.064;2024-02-21T02:25:48;98942.16;;;7.24;100.00
18323;BME280;9287;49.456;11.064;2024-02-21T02:28:19;98936.13;;;7.27;100.00
18323;BME280;9287;49.456;11.064;2024-02-21T02:30:47;98937.22;;;7.26;100.00
18323;BME280;9287;49.456;11.064;2024-02-21T02:33:15;98928.81;;;7.36;100.00
18323;BME280;9287;49.456;11.064;2024-02-21T02:35:45;98924.13;;;7.28;100.00
18323;BME280;9287;49.456;11.064;2024-02-21T02:38:13;98922.16;;;7.20;100.00
18323;BME280;9287;49.456;11.064;2024-02-21T02:40:43;98918.31;;;7.21;100.00
18323;BME280;9287;49.456;11.064;2024-02-21T02:43:11;98919.88;;;7.36;100.00
18323;BME280;9287;49.456;11.064;2024-02-21T02:45:39;98902.22;;;7.24;100.00
18323;BME280;9287;49.456;11.064;2024-02-21T02:48:07;98892.69;;;7.13;100.00
18323;BME280;9287;49.456;11.064;2024-02-21T02:50:35;98890.47;;;7.15;100.00
18323;BME280;9287;49.456;11.064;2024-02-21T02:53:03;98895.91;;;7.15;100.00
18323;BME280;9287;49.456;11.064;2024-02-21T02:55:31;98909.78;;;7.14;100.00
18323;BME280;9287;49.456;11.064;2024-02-21T02:58:00;98894.69;;;7.21;100.00
18323;BME280;9287;49.456;11.064;2024-02-21T03:00:29;98895.00;;;7.20;100.00
18323;BME280;9287;49.456;11.064;2024-02-21T03:02:57;98891.88;;;7.13;100.00
18323;BME280;9287;49.456;11.064;2024-02-21T03:05:25;98884.84;;;7.12;100.00
18323;BME280;9287;49.456;11.064;2024-02-21T03:07:53;98889.66;;;7.15;100.00
18323;BME280;9287;49.456;11.064;2024-02-21T03:10:20;98887.38;;;7.08;100.00
18323;BME280;9287;49.456;11.064;2024-02-21T03:12:48;98877.19;;;7.14;100.00
18323;BME280;9287;49.456;11.064;2024-02-21T03:15:20;98885.41;;;7.22;100.00
18323;BME280;9287;49.456;11.064;2024-02-21T03:17:48;98894.88;;;7.25;100.00
18323;BME280;9287;49.456;11.064;2024-02-21T03:20:16;98887.56;;;7.34;100.00
18323;BME280;9287;49.456;11.064;2024-02-21T03:22:46;98881.16;;;7.30;100.00
18323;BME280;9287;49.456;11.064;2024-02-21T03:25:14;98876.81;;;7.29;100.00
18323;BME280;9287;49.456;11.064;2024-02-21T03:27:42;98884.34;;;7.32;100.00
18323;BME280;9287;49.456;11.064;2024-02-21T03:30:10;98866.94;;;7.33;100.00
18323;BME280;9287;49.456;11.064;2024-02-21T03:32:40;98867.81;;;7.42;100.00
18323;BME280;9287;49.456;11.064;2024-02-21T03:35:08;98868.44;;;7.39;100.00
18323;BME280;9287;49.456;11.064;2024-02-21T03:37:36;98872.75;;;7.40;100.00
18323;BME280;9287;49.456;11.064;2024-02-21T03:40:07;98872.88;;;7.35;100.00
18323;BME280;9287;49.456;11.064;2024-02-21T03:42:35;98870.91;;;7.27;100.00
18323;BME280;9287;49.456;11.064;2024-02-21T03:45:03;98876.34;;;7.27;100.00
18323;BME280;9287;49.456;11.064;2024-02-21T03:47:31;98869.66;;;7.33;100.00
18323;BME280;9287;49.456;11.064;2024-02-21T03:50:00;98869.78;;;7.28;100.00
18323;BME280;9287;49.456;11.064;2024-02-21T03:52:28;98864.84;;;7.30;100.00
18323;BME280;9287;49.456;11.064;2024-02-21T03:54:56;98867.72;;;7.25;100.00
18323;BME280;9287;49.456;11.064;2024-02-21T03:57:24;98865.50;;;7.27;100.00
18323;BME280;9287;49.456;11.064;2024-02-21T03:59:52;98856.66;;;7.21;100.00
18323;BME280;9287;49.456;11.064;2024-02-21T04:02:19;98851.75;;;7.32;100.00
18323;BME280;9287;49.456;11.064;2024-02-21T04:04:47;98846.31;;;7.32;100.00
18323;BME280;9287;49.456;11.064;2024-02-21T04:07:16;98845.72;;;7.35;100.00
18323;BME280;9287;49.456;11.064;2024-02-21T04:09:44;98832.63;;;7.37;100.00
18323;BME280;9287;49.456;11.064;2024-02-21T04:12:12;98830.53;;;7.34;100.00
18323;BME280;9287;49.456;11.064;2024-02-21T04:14:40;98830.53;;;7.34;100.00
18323;BME280;9287;49.456;11.064;2024-02-21T04:17:11;98829.41;;;7.35;100.00
18323;BME280;9287;49.456;11.064;2024-02-21T04:19:39;98833.63;;;7.41;100.00
18323;BME280;9287;49.456;11.064;2024-02-21T04:22:07;98830.22;;;7.36;100.00
18323;BME280;9287;49.456;11.064;2024-02-21T04:24:36;98827.00;;;7.33;100.00
18323;BME280;9287;49.456;11.064;2024-02-21T04:27:04;98834.22;;;7.38;100.00
18323;BME280;9287;49.456;11.064;2024-02-21T04:29:32;98845.72;;;7.35;100.00
18323;BME280;9287;49.456;11.064;2024-02-21T04:32:01;98841.88;;;7.36;100.00
18323;BME280;9287;49.456;11.064;2024-02-21T04:34:29;98835.84;;;7.39;100.00
18323;BME280;9287;49.456;11.064;2024-02-21T04:36:58;98835.09;;;7.25;100.00
18323;BME280;9287;49.456;11.064;2024-02-21T04:39:25;98831.91;;;7.23;100.00
18323;BME280;9287;49.456;11.064;2024-02-21T04:41:54;98822.03;;;7.27;100.00
18323;BME280;9287;49.456;11.064;2024-02-21T04:44:22;98827.47;;;7.27;100.00
18323;BME280;9287;49.456;11.064;2024-02-21T04:46:50;98811.28;;;7.22;100.00
18323;BME280;9287;49.456;11.064;2024-02-21T04:49:18;98813.50;;;7.20;100.00
18323;BME280;9287;49.456;11.064;2024-02-21T04:51:45;98821.44;;;7.16;100.00
18323;BME280;9287;49.456;11.064;2024-02-21T04:54:13;98811.41;;;7.17;100.00
18323;BME280;9287;49.456;11.064;2024-02-21T04:56:41;98823.25;;;7.21;100.00
18323;BME280;9287;49.456;11.064;2024-02-21T04:59:10;98812.50;;;7.16;100.00
18323;BME280;9287;49.456;11.064;2024-02-21T05:01:38;98806.56;;;7.14;100.00
18323;BME280;9287;49.456;11.064;2024-02-21T05:04:06;98805.16;;;7.16;100.00
18323;BME280;9287;49.456;11.064;2024-02-21T05:06:37;98804.34;;;7.16;100.00
18323;BME280;9287;49.456;11.064;2024-02-21T05:09:05;98796.69;;;7.18;100.00
18323;BME280;9287;49.456;11.064;2024-02-21T05:11:33;98787.00;;;7.25;100.00
18323;BME280;9287;49.456;11.064;2024-02-21T05:14:00;98778.44;;;7.10;100.00
18323;BME280;9287;49.456;11.064;2024-02-21T05:16:31;98778.44;;;7.10;100.00
18323;BME280;9287;49.456;11.064;2024-02-21T05:18:59;98772.66;;;7.03;100.00
18323;BME280;9287;49.456;11.064;2024-02-21T05:21:27;98774.19;;;6.95;100.00
18323;BME280;9287;49.456;11.064;2024-02-21T05:23:55;98776.47;;;7.02;100.00
18323;BME280;9287;49.456;11.064;2024-02-21T05:26:24;98769.84;;;6.94;100.00
18323;BME280;9287;49.456;11.064;2024-02-21T05:28:52;98772.44;;;6.99;100.00
18323;BME280;9287;49.456;11.064;2024-02-21T05:31:20;98765.00;;;7.05;100.00
18323;BME280;9287;49.456;11.064;2024-02-21T05:33:49;98775.25;;;7.08;100.00
18323;BME280;9287;49.456;11.064;2024-02-21T05:36:17;98778.06;;;7.03;100.00
18323;BME280;9287;49.456;11.064;2024-02-21T05:38:45;98769.06;;;6.93;100.00
18323;BME280;9287;49.456;11.064;2024-02-21T05:41:13;98777.19;;;6.93;100.00
18323;BME280;9287;49.456;11.064;2024-02-21T05:43:41;98776.72;;;6.91;100.00
18323;BME280;9287;49.456;11.064;2024-02-21T05:46:09;98775.25;;;6.85;100.00
18323;BME280;9287;49.456;11.064;2024-02-21T05:48:36;98773.63;;;6.84;100.00
18323;BME280;9287;49.456;11.064;2024-02-21T05:51:07;98767.72;;;6.82;100.00
18323;BME280;9287;49.456;11.064;2024-02-21T05:53:35;98768.47;;;6.74;100.00
18323;BME280;9287;49.456;11.064;2024-02-21T05:56:09;98757.72;;;6.69;100.00
18323;BME280;9287;49.456;11.064;2024-02-21T05:58:37;98756.09;;;6.68;100.00
18323;BME280;9287;49.456;11.064;2024-02-21T06:01:06;98764.50;;;6.80;100.00
18323;BME280;9287;49.456;11.064;2024-02-21T06:03:34;98767.09;;;6.85;100.00
18323;BME280;9287;49.456;11.064;2024-02-21T06:06:03;98759.06;;;6.80;100.00
18323;BME280;9287;49.456;11.064;2024-02-21T06:08:32;98748.22;;;6.80;100.00
18323;BME280;9287;49.456;11.064;2024-02-21T06:11:00;98753.44;;;6.77;100.00
18323;BME280;9287;49.456;11.064;2024-02-21T06:13:28;98759.31;;;6.70;100.00
18323;BME280;9287;49.456;11.064;2024-02-21T06:15:56;98761.44;;;6.73;100.00
18323;BME280;9287;49.456;11.064;2024-02-21T06:18:34;98761.53;;;6.68;100.00
18323;BME280;9287;49.456;11.064;2024-02-21T06:21:03;98749.06;;;6.67;100.00
18323;BME280;9287;49.456;11.064;2024-02-21T06:23:31;98747.47;;;6.66;100.00
18323;BME280;9287;49.456;11.064;2024-02-21T06:26:00;98756.22;;;6.63;100.00
18323;BME280;9287;49.456;11.064;2024-02-21T06:28:28;98758.13;;;6.62;100.00
18323;BME280;9287;49.456;11.064;2024-02-21T06:30:56;98769.78;;;6.63;100.00
18323;BME280;9287;49.456;11.064;2024-02-21T06:33:24;98770.59;;;6.63;100.00
18323;BME280;9287;49.456;11.064;2024-02-21T06:35:52;98772.13;;;6.78;100.00
18323;BME280;9287;49.456;11.064;2024-02-21T06:38:20;98767.34;;;6.75;100.00
18323;BME280;9287;49.456;11.064;2024-02-21T06:40:48;98777.06;;;6.76;100.00
18323;BME280;9287;49.456;11.064;2024-02-21T06:43:20;98770.53;;;6.77;100.00
18323;BME280;9287;49.456;11.064;2024-02-21T06:45:48;98779.97;;;6.80;100.00
18323;BME280;9287;49.456;11.064;2024-02-21T06:48:18;98780.78;;;6.80;100.00
18323;BME280;9287;49.456;11.064;2024-02-21T06:50:46;98777.75;;;6.82;100.00
18323;BME280;9287;49.456;11.064;2024-02-21T06:53:14;98781.59;;;6.81;100.00
18323;BME280;9287;49.456;11.064;2024-02-21T06:55:42;98778.56;;;6.82;100.00
18323;BME280;9287;49.456;11.064;2024-02-21T06:58:10;98776.03;;;6.86;100.00
18323;BME280;9287;49.456;11.064;2024-02-21T07:00:40;98772.09;;;6.92;100.00
18323;BME280;9287;49.456;11.064;2024-02-21T07:03:09;98774.47;;;6.93;100.00
18323;BME280;9287;49.456;11.064;2024-02-21T07:05:37;98766.19;;;6.90;100.00
18323;BME280;9287;49.456;11.064;2024-02-21T07:08:06;98762.03;;;6.92;100.00
18323;BME280;9287;49.456;11.064;2024-02-21T07:10:36;98752.75;;;6.93;100.00
18323;BME280;9287;49.456;11.064;2024-02-21T07:13:04;98743.34;;;6.91;100.00
18323;BME280;9287;49.456;11.064;2024-02-21T07:15:31;98753.13;;;7.01;100.00
18323;BME280;9287;49.456;11.064;2024-02-21T07:18:01;98761.50;;;7.13;100.00
18323;BME280;9287;49.456;11.064;2024-02-21T07:20:28;98759.28;;;7.15;100.00
18323;BME280;9287;49.456;11.064;2024-02-21T07:22:56;98759.03;;;7.25;100.00
18323;BME280;9287;49.456;11.064;2024-02-21T07:25:24;98756.81;;;7.27;100.00
18323;BME280;9287;49.456;11.064;2024-02-21T07:27:52;98761.59;;;7.30;100.00
18323;BME280;9287;49.456;11.064;2024-02-21T07:30:20;98750.81;;;7.47;100.00
18323;BME280;9287;49.456;11.064;2024-02-21T07:32:49;98752.09;;;7.41;100.00
18323;BME280;9287;49.456;11.064;2024-02-21T07:35:19;98756.25;;;7.47;100.00
18323;BME280;9287;49.456;11.064;2024-02-21T07:37:46;98749.72;;;7.48;100.00
18323;BME280;9287;49.456;11.064;2024-02-21T07:40:15;98748.19;;;7.64;100.00
18323;BME280;9287;49.456;11.064;2024-02-21T07:42:43;98756.25;;;7.78;100.00
18323;BME280;9287;49.456;11.064;2024-02-21T07:45:17;98744.44;;;7.91;100.00
18323;BME280;9287;49.456;11.064;2024-02-21T07:47:48;98748.00;;;8.09;100.00
18323;BME280;9287;49.456;11.064;2024-02-21T07:50:16;98742.41;;;8.23;100.00
18323;BME280;9287;49.456;11.064;2024-02-21T07:52:46;98742.09;;;8.24;100.00
18323;BME280;9287;49.456;11.064;2024-02-21T07:55:14;98740.38;;;8.54;100.00
18323;BME280;9287;49.456;11.064;2024-02-21T07:57:41;98737.97;;;8.53;100.00
18323;BME280;9287;49.456;11.064;2024-02-21T08:00:10;98737.66;;;8.46;100.00
18323;BME280;9287;49.456;11.064;2024-02-21T08:02:43;98740.53;;;8.41;100.00
18323;BME280;9287;49.456;11.064;2024-02-21T08:05:11;98743.91;;;8.46;100.00
18323;BME280;9287;49.456;11.064;2024-02-21T08:07:39;98742.78;;;8.56;100.00
18323;BME280;9287;49.456;11.064;2024-02-21T08:10:09;98733.81;;;8.81;100.00
18323;BME280;9287;49.456;11.064;2024-02-21T08:12:37;98728.97;;;8.95;100.00
18323;BME280;9287;49.456;11.064;2024-02-21T08:15:05;98725.91;;;9.05;100.00
18323;BME280;9287;49.456;11.064;2024-02-21T08:17:34;98726.06;;;9.18;100.00
18323;BME280;9287;49.456;11.064;2024-02-21T08:20:02;98715.09;;;9.35;100.00
18323;BME280;9287;49.456;11.064;2024-02-21T08:22:31;98700.53;;;9.60;100.00
18323;BME280;9287;49.456;11.064;2024-02-21T08:24:58;98702.03;;;9.49;100.00
18323;BME280;9287;49.456;11.064;2024-02-21T08:27:28;98700.78;;;9.47;100.00
18323;BME280;9287;49.456;11.064;2024-02-21T08:29:56;98700.91;;;10.38;100.00
18323;BME280;9287;49.456;11.064;2024-02-21T08:32:23;98700.94;;;10.51;100.00
18323;BME280;9287;49.456;11.064;2024-02-21T08:34:51;98701.72;;;10.72;100.00
18323;BME280;9287;49.456;11.064;2024-02-21T08:37:19;98707.34;;;11.21;100.00
18323;BME280;9287;49.456;11.064;2024-02-21T08:39:48;98697.84;;;11.88;100.00
18323;BME280;9287;49.456;11.064;2024-02-21T08:42:16;98703.72;;;12.26;99.64
18323;BME280;9287;49.456;11.064;2024-02-21T08:44:45;98707.34;;;11.21;100.00
18323;BME280;9287;49.456;11.064;2024-02-21T08:47:13;98702.78;;;10.17;100.00
18323;BME280;9287;49.456;11.064;2024-02-21T08:49:41;98702.25;;;10.03;100.00
18323;BME280;9287;49.456;11.064;2024-02-21T08:52:09;98686.63;;;9.83;100.00
18323;BME280;9287;49.456;11.064;2024-02-21T08:54:37;98692.25;;;10.07;100.00
18323;BME280;9287;49.456;11.064;2024-02-21T08:57:04;98682.97;;;10.50;100.00
18323;BME280;9287;49.456;11.064;2024-02-21T08:59:32;98676.06;;;10.97;100.00
18323;BME280;9287;49.456;11.064;2024-02-21T09:02:02;98680.00;;;11.33;100.00
18323;BME280;9287;49.456;11.064;2024-02-21T09:04:30;98689.78;;;11.22;100.00
18323;BME280;9287;49.456;11.064;2024-02-21T09:06:59;98689.13;;;10.92;100.00
18323;BME280;9287;49.456;11.064;2024-02-21T09:09:27;98681.63;;;10.56;100.00
18323;BME280;9287;49.456;11.064;2024-02-21T09:11:55;98681.38;;;10.49;100.00
18323;BME280;9287;49.456;11.064;2024-02-21T09:14:24;98684.00;;;10.57;100.00
18323;BME280;9287;49.456;11.064;2024-02-21T09:16:52;98684.19;;;11.18;100.00
18323;BME280;9287;49.456;11.064;2024-02-21T09:19:21;98676.38;;;11.53;100.00
18323;BME280;9287;49.456;11.064;2024-02-21T09:21:49;98670.44;;;11.39;100.00
18323;BME280;9287;49.456;11.064;2024-02-21T09:24:17;98669.78;;;11.91;98.49
18323;BME280;9287;49.456;11.064;2024-02-21T09:26:45;98675.34;;;12.46;93.14
18323;BME280;9287;49.456;11.064;2024-02-21T09:29:13;98664.94;;;12.80;84.19
18323;BME280;9287;49.456;11.064;2024-02-21T09:31:42;98666.72;;;13.04;81.64
18323;BME280;9287;49.456;11.064;2024-02-21T09:34:10;98667.69;;;13.39;74.02
18323;BME280;9287;49.456;11.064;2024-02-21T09:36:39;98661.03;;;13.24;80.38
18323;BME280;9287;49.456;11.064;2024-02-21T09:39:07;98659.09;;;13.41;76.41
18323;BME280;9287;49.456;11.064;2024-02-21T09:41:41;98675.44;;;13.84;73.73
18323;BME280;9287;49.456;11.064;2024-02-21T09:44:13;98672.22;;;13.32;78.51
18323;BME280;9287;49.456;11.064;2024-02-21T09:46:52;98670.72;;;13.06;79.12
18323;BME280;9287;49.456;11.064;2024-02-21T09:49:28;98657.91;;;12.67;83.66
18323;BME280;9287;49.456;11.064;2024-02-21T09:52:00;98658.88;;;12.59;88.74
18323;BME280;9287;49.456;11.064;2024-02-21T09:54:29;98653.63;;;12.26;84.92
18323;BME280;9287;49.456;11.064;2024-02-21T09:56:58;98661.69;;;12.34;86.04
18323;BME280;9287;49.456;11.064;2024-02-21T09:59:27;98650.31;;;12.60;81.79
18323;BME280;9287;49.456;11.064;2024-02-21T10:01:55;98643.75;;;12.65;82.87
18323;BME280;9287;49.456;11.064;2024-02-21T10:04:23;98647.25;;;12.49;79.87
18323;BME280;9287;49.456;11.064;2024-02-21T10:06:51;98633.91;;;12.20;83.57
18323;BME280;9287;49.456;11.064;2024-02-21T10:09:24;98632.53;;;12.26;85.58
18323;BME280;9287;49.456;11.064;2024-02-21T10:11:55;98626.53;;;12.36;88.48
18323;BME280;9287;49.456;11.064;2024-02-21T10:14:23;98626.16;;;13.09;79.13
18323;BME280;9287;49.456;11.064;2024-02-21T10:16:57;98619.78;;;13.05;75.05
18323;BME280;9287;49.456;11.064;2024-02-21T10:19:26;98625.25;;;13.05;76.56
18323;BME280;9287;49.456;11.064;2024-02-21T10:22:01;98616.19;;;13.17;74.93
18323;BME280;9287;49.456;11.064;2024-02-21T10:24:31;98606.06;;;13.52;73.48
18323;BME280;9287;49.456;11.064;2024-02-21T10:27:01;98606.72;;;13.14;74.69
18323;BME280;9287;49.456;11.064;2024-02-21T10:29:30;98610.28;;;13.31;72.13
18323;BME280;9287;49.456;11.064;2024-02-21T10:32:06;98603.16;;;13.61;71.08
18323;BME280;9287;49.456;11.064;2024-02-21T10:34:34;98601.72;;;13.67;69.36
18323;BME280;9287;49.456;11.064;2024-02-21T10:37:03;98597.56;;;13.92;65.83
18323;BME280;9287;49.456;11.064;2024-02-21T10:39:33;98589.97;;;13.67;68.23
18323;BME280;9287;49.456;11.064;2024-02-21T10:42:03;98586.59;;;13.92;66.83
18323;BME280;9287;49.456;11.064;2024-02-21T10:44:32;98586.00;;;14.03;65.57
18323;BME280;9287;49.456;11.064;2024-02-21T10:47:07;98582.72;;;14.51;62.26
18323;BME280;9287;49.456;11.064;2024-02-21T10:49:38;98584.13;;;13.87;62.91
18323;BME280;9287;49.456;11.064;2024-02-21T10:52:12;98571.53;;;13.51;66.03
18323;BME280;9287;49.456;11.064;2024-02-21T10:54:47;98574.13;;;13.60;66.26
18323;BME280;9287;49.456;11.064;2024-02-21T10:57:17;98567.75;;;13.56;68.52
18323;BME280;9287;49.456;11.064;2024-02-21T10:59:48;98566.84;;;13.33;68.79
18323;BME280;9287;49.456;11.064;2024-02-21T11:02:16;98560.00;;;13.27;71.74
18323;BME280;9287;49.456;11.064;2024-02-21T11:04:45;98550.78;;;12.72;69.89
18323;BME280;9287;49.456;11.064;2024-02-21T11:07:14;98555.81;;;12.54;71.73
18323;BME280;9287;49.456;11.064;2024-02-21T11:09:51;98543.63;;;11.96;74.79
18323;BME280;9287;49.456;11.064;2024-02-21T11:12:20;98545.41;;;12.32;80.49
18323;BME280;9287;49.456;11.064;2024-02-21T11:14:48;98537.09;;;12.72;75.18
18323;BME280;9287;49.456;11.064;2024-02-21T11:17:17;98536.19;;;12.99;71.99
18323;BME280;9287;49.456;11.064;2024-02-21T11:19:45;98535.34;;;12.79;73.57
18323;BME280;9287;49.456;11.064;2024-02-21T11:22:14;98522.59;;;12.87;72.97
18323;BME280;9287;49.456;11.064;2024-02-21T11:24:45;98511.97;;;13.17;71.49
18323;BME280;9287;49.456;11.064;2024-02-21T11:27:14;98501.97;;;13.24;71.61
18323;BME280;9287;49.456;11.064;2024-02-21T11:29:43;98492.47;;;13.38;70.62
18323;BME280;9287;49.456;11.064;2024-02-21T11:32:10;98487.59;;;13.47;70.67
18323;BME280;9287;49.456;11.064;2024-02-21T11:34:38;98488.03;;;13.68;65.46
18323;BME280;9287;49.456;11.064;2024-02-21T11:37:16;98484.47;;;14.25;63.66
18323;BME280;9287;49.456;11.064;2024-02-21T11:39:45;98488.72;;;14.42;61.01
18323;BME280;9287;49.456;11.064;2024-02-21T11:42:16;98487.91;;;13.61;63.29
18323;BME280;9287;49.456;11.064;2024-02-21T11:44:44;98477.31;;;14.40;61.04
18323;BME280;9287;49.456;11.064;2024-02-21T11:47:14;98460.34;;;14.38;58.78
18323;BME280;9287;49.456;11.064;2024-02-21T11:49:45;98459.41;;;14.73;58.77
18323;BME280;9287;49.456;11.064;2024-02-21T11:52:16;98457.78;;;14.45;57.20
18323;BME280;9287;49.456;11.064;2024-02-21T11:54:47;98457.97;;;15.05;56.49
18323;BME280;9287;49.456;11.064;2024-02-21T11:57:17;98446.19;;;15.35;56.10
18323;BME280;9287;49.456;11.064;2024-02-21T11:59:45;98445.56;;;16.12;53.62
18323;BME280;9287;49.456;11.064;2024-02-21T12:02:14;98438.97;;;15.83;53.66
18323;BME280;9287;49.456;11.064;2024-02-21T12:04:42;98434.44;;;16.01;52.34
18323;BME280;9287;49.456;11.064;2024-02-21T12:07:11;98430.03;;;15.59;52.78
18323;BME280;9287;49.456;11.064;2024-02-21T12:09:41;98424.63;;;15.37;53.22
18323;BME280;9287;49.456;11.064;2024-02-21T12:12:11;98413.25;;;14.36;55.76
18323;BME280;9287;49.456;11.064;2024-02-21T12:14:38;98404.13;;;15.04;54.51
18323;BME280;9287;49.456;11.064;2024-02-21T12:17:06;98405.56;;;14.45;54.67
18323;BME280;9287;49.456;11.064;2024-02-21T12:19:34;98401.41;;;14.32;55.62
18323;BME280;9287;49.456;11.064;2024-02-21T12:22:02;98404.56;;;14.34;54.69
18323;BME280;9287;49.456;11.064;2024-02-21T12:24:33;98397.97;;;14.61;54.91
18323;BME280;9287;49.456;11.064;2024-02-21T12:27:02;98394.63;;;14.49;56.12
18323;BME280;9287;49.456;11.064;2024-02-21T12:29:32;98385.97;;;14.01;55.32
18323;BME280;9287;49.456;11.064;2024-02-21T12:31:59;98382.00;;;13.99;55.34
18323;BME280;9287;49.456;11.064;2024-02-21T12:34:27;98384.53;;;14.11;55.63
18323;BME280;9287;49.456;11.064;2024-02-21T12:37:15;98386.06;;;14.08;55.37
18323;BME280;9287;49.456;11.064;2024-02-21T12:39:43;98366.78;;;14.27;55.34
18323;BME280;9287;49.456;11.064;2024-02-21T12:42:11;98369.88;;;14.72;53.61
18323;BME280;9287;49.456;11.064;2024-02-21T12:44:40;98360.88;;;15.01;53.54
18323;BME280;9287;49.456;11.064;2024-02-21T12:47:08;98346.44;;;14.81;52.89
18323;BME280;9287;49.456;11.064;2024-02-21T12:49:36;98341.97;;;14.70;52.64
18323;BME280;9287;49.456;11.064;2024-02-21T12:52:08;98336.44;;;14.96;50.98
18323;BME280;9287;49.456;11.064;2024-02-21T12:54:36;98329.03;;;14.70;50.69
18323;BME280;9287;49.456;11.064;2024-02-21T12:57:04;98324.31;;;14.44;51.11
18323;BME280;9287;49.456;11.064;2024-02-21T12:59:32;98322.53;;;14.10;52.02
18323;BME280;9287;49.456;11.064;2024-02-21T13:02:01;98320.81;;;13.56;52.09
18323;BME280;9287;49.456;11.064;2024-02-21T13:04:29;98313.50;;;13.86;52.74
18323;BME280;9287;49.456;11.064;2024-02-21T13:06:57;98311.03;;;14.01;52.27
18323;BME280;9287;49.456;11.064;2024-02-21T13:09:25;98303.28;;;13.83;53.41